Time;durP1;ratioP1;P1;durP2;ratioP2;P2;SDS_P1;SDS_P2;PMS_P1;PMS_P2;Temp;Humidity;BMP_temperature;BMP_pressure;BME280_temperature;BME280_humidity;BME280_pressure;Samples;Min_cycle;Max_cycle;Signal;HPM_P1;HPM_P2
2023/02/24 00:00:37;;;;;;;12.30;3.35;;;;;;;5.05;100.00;101790.03;4992311;28;20447;-86
2023/02/24 00:03:04;;;;;;;11.13;3.38;;;;;;;5.13;100.00;101794.75;4989677;28;20050;-85
2023/02/24 00:05:41;;;;;;;5.80;2.60;;;;;;;5.07;100.00;101795.22;4991713;28;20030;-86
2023/02/24 00:08:09;;;;;;;5.82;2.78;;;;;;;5.05;100.00;101797.16;4993810;28;20030;-84
2023/02/24 00:10:37;;;;;;;12.02;3.00;;;;;;;4.99;100.00;101781.63;4984206;28;20042;-86
2023/02/24 00:13:06;;;;;;;8.30;2.60;;;;;;;5.01;100.00;101791.22;4985976;28;20026;-89
2023/02/24 00:15:34;;;;;;;6.57;2.25;;;;;;;5.04;100.00;101800.81;4992059;28;20034;-87
2023/02/24 00:18:05;;;;;;;5.65;2.80;;;;;;;5.00;100.00;101799.31;4979737;28;20456;-87
2023/02/24 00:20:32;;;;;;;6.72;2.42;;;;;;;4.97;100.00;101795.06;4961542;28;20038;-84
2023/02/24 00:22:59;;;;;;;7.95;2.60;;;;;;;4.95;100.00;101786.34;4972285;28;20481;-84
2023/02/24 00:25:25;;;;;;;8.63;2.97;;;;;;;4.92;100.00;101783.03;4995429;28;20058;-89
2023/02/24 00:28:00;;;;;;;10.38;2.88;;;;;;;4.87;100.00;101779.88;4973138;28;20038;-85
2023/02/24 00:30:28;;;;;;;8.90;2.95;;;;;;;4.84;100.00;101781.81;4960128;28;20035;-85
2023/02/24 00:33:04;;;;;;;12.88;3.30;;;;;;;4.81;100.00;101779.34;4976803;28;20125;-87
2023/02/24 00:35:31;;;;;;;18.77;4.45;;;;;;;4.75;100.00;101782.47;4991800;28;20037;-85
2023/02/24 00:37:57;;;;;;;20.58;5.25;;;;;;;4.76;100.00;101786.00;4956706;28;20047;-86
2023/02/24 00:40:29;;;;;;;12.13;3.90;;;;;;;4.75;100.00;101781.63;4986909;28;20030;-88
2023/02/24 00:42:55;;;;;;;9.77;4.10;;;;;;;4.69;100.00;101763.44;4992750;28;20030;-87
2023/02/24 00:45:24;;;;;;;19.83;5.03;;;;;;;4.82;100.00;101777.56;4961643;28;20033;-86
2023/02/24 00:47:49;;;;;;;8.00;3.60;;;;;;;4.82;100.00;101772.25;4958975;28;20047;-85
2023/02/24 00:50:16;;;;;;;15.85;4.32;;;;;;;4.79;100.00;101764.44;4987138;28;20380;-86
2023/02/24 00:52:42;;;;;;;9.35;3.65;;;;;;;4.73;100.00;101751.59;4977846;28;20042;-88
2023/02/24 00:55:13;;;;;;;10.63;4.40;;;;;;;4.80;100.00;101760.84;4992967;28;20030;-86
2023/02/24 00:57:40;;;;;;;6.45;3.13;;;;;;;4.70;100.00;101757.16;4975371;28;20038;-84
2023/02/24 01:00:12;;;;;;;9.10;3.25;;;;;;;4.81;100.00;101767.84;4993994;28;20034;-85
2023/02/24 01:02:46;;;;;;;8.23;3.88;;;;;;;4.78;100.00;101768.94;4962203;28;20113;-88
2023/02/24 01:05:12;;;;;;;8.60;3.20;;;;;;;4.77;100.00;101763.72;4960629;28;20046;-86
2023/02/24 01:07:44;;;;;;;10.13;3.72;;;;;;;4.76;100.00;101765.56;4993604;28;20050;-87
2023/02/24 01:10:11;;;;;;;11.43;3.13;;;;;;;4.81;100.00;101767.84;4962431;28;20045;-85
2023/02/24 01:12:52;;;;;;;10.48;3.03;;;;;;;4.80;100.00;101761.69;4980614;28;20034;-87
2023/02/24 01:15:29;;;;;;;6.60;2.85;;;;;;;4.81;100.00;101746.53;4986287;28;20061;-84
2023/02/24 01:17:57;;;;;;;9.30;3.72;;;;;;;4.93;100.00;101756.28;4967395;28;20026;-85
2023/02/24 01:20:29;;;;;;;8.30;2.67;;;;;;;4.93;100.00;101739.47;4995287;28;20030;-87
2023/02/24 01:22:58;;;;;;;10.73;3.25;;;;;;;5.00;100.00;101741.56;4992065;28;20041;-86
2023/02/24 01:25:26;;;;;;;6.32;3.13;;;;;;;4.89;100.00;101732.63;4993777;28;20038;-87
2023/02/24 01:27:55;;;;;;;14.27;3.78;;;;;;;4.89;100.00;101748.63;4992206;28;20061;-86
2023/02/24 01:30:27;;;;;;;6.70;2.50;;;;;;;4.83;100.00;101745.47;4972827;28;20038;-85
2023/02/24 01:32:56;;;;;;;11.15;3.28;;;;;;;4.83;100.00;101750.78;4960277;28;20038;-85
2023/02/24 01:35:23;;;;;;;12.48;3.33;;;;;;;4.78;100.00;101746.75;4992026;28;20035;-85
2023/02/24 01:37:52;;;;;;;10.65;3.90;;;;;;;4.78;100.00;101747.63;4976321;28;20034;-89
2023/02/24 01:40:21;;;;;;;7.60;3.13;;;;;;;4.83;100.00;101744.63;4957399;28;20054;-85
2023/02/24 01:42:54;;;;;;;7.97;3.25;;;;;;;4.85;100.00;101742.69;4978005;28;20121;-92
2023/02/24 01:45:27;;;;;;;7.35;2.53;;;;;;;4.94;100.00;101744.66;4975798;28;20038;-86
2023/02/24 01:47:59;;;;;;;9.37;3.43;;;;;;;5.04;100.00;101745.66;4960367;28;20045;-87
2023/02/24 01:50:25;;;;;;;9.05;3.13;;;;;;;5.05;100.00;101726.06;4960739;28;20065;-83
2023/02/24 01:52:54;;;;;;;8.88;2.78;;;;;;;5.08;100.00;101730.31;4989555;28;20039;-88
2023/02/24 01:55:27;;;;;;;12.85;2.88;;;;;;;5.22;100.00;101737.25;4973038;28;20453;-86
2023/02/24 01:57:58;;;;;;;9.70;2.95;;;;;;;5.29;100.00;101730.47;4973810;28;20050;-86
2023/02/24 02:00:45;;;;;;;9.13;2.83;;;;;;;5.38;100.00;101718.25;4992928;28;20499;-87
2023/02/24 02:03:40;;;;;;;7.57;2.58;;;;;;;5.36;100.00;101720.19;4968359;28;20485;-86
2023/02/24 02:06:27;;;;;;;14.65;3.75;;;;;;;5.35;100.00;101722.00;4979048;28;20476;-86
2023/02/24 02:08:53;;;;;;;11.00;2.60;;;;;;;5.33;100.00;101725.75;4958296;28;20085;-84
2023/02/24 02:11:19;;;;;;;6.45;2.47;;;;;;;5.32;100.00;101724.03;4958010;28;20535;-87
2023/02/24 02:13:45;;;;;;;11.95;2.70;;;;;;;5.23;100.00;101710.44;4973778;28;20078;-86
2023/02/24 02:16:35;;;;;;;9.93;2.95;;;;;;;5.21;100.00;101700.88;4961229;28;20034;-87
2023/02/24 02:19:22;;;;;;;8.95;2.50;;;;;;;5.29;100.00;101710.00;4994277;28;20044;-85
2023/02/24 02:22:22;;;;;;;6.40;2.20;;;;;;;5.25;100.00;101699.69;4991273;28;20038;-86
2023/02/24 02:25:36;;;;;;;8.73;2.38;;;;;;;5.41;100.00;101705.53;4970842;28;20050;-86
2023/02/24 02:28:11;;;;;;;13.45;3.40;;;;;;;5.39;100.00;101693.28;4989541;28;20037;-85
2023/02/24 02:30:58;;;;;;;9.35;3.03;;;;;;;5.44;100.00;101691.09;4977167;28;20073;-83
2023/02/24 02:33:52;;;;;;;8.27;3.05;;;;;;;5.56;100.00;101689.28;4983750;28;20026;-84
2023/02/24 02:36:29;;;;;;;8.07;3.33;;;;;;;5.62;100.00;101688.81;4976781;28;20120;-88
2023/02/24 02:39:38;;;;;;;3.17;1.85;;;;;;;5.73;100.00;101696.81;4969574;28;20038;-90
2023/02/24 02:42:17;;;;;;;5.63;1.90;;;;;;;5.75;100.00;101694.88;4964008;28;20056;-89
2023/02/24 02:45:04;;;;;;;10.05;2.75;;;;;;;5.77;100.00;101702.75;4993646;28;20085;-87
2023/02/24 02:47:52;;;;;;;7.35;3.13;;;;;;;5.70;100.00;101700.56;4965256;28;20194;-86
2023/02/24 02:50:33;;;;;;;14.35;2.65;;;;;;;5.66;100.00;101696.47;4985707;28;20046;-86
2023/02/24 02:53:05;;;;;;;4.53;2.17;;;;;;;5.50;100.00;101686.16;4970568;28;20743;-86
2023/02/24 02:55:47;;;;;;;9.07;3.20;;;;;;;5.46;100.00;101689.16;4960546;28;20030;-89
2023/02/24 02:58:18;;;;;;;4.82;2.70;;;;;;;5.42;100.00;101695.69;4968377;28;20420;-89
2023/02/24 03:00:57;;;;;;;9.05;2.63;;;;;;;5.24;100.00;101685.50;4977321;28;20119;-85
2023/02/24 03:03:25;;;;;;;7.90;2.92;;;;;;;5.18;100.00;101687.78;4975527;28;20382;-86
2023/02/24 03:05:56;;;;;;;8.52;2.60;;;;;;;4.85;100.00;101642.28;4974798;28;20042;-87
2023/02/24 03:08:24;;;;;;;12.20;2.63;;;;;;;5.00;100.00;101676.69;4988807;28;20066;-88
2023/02/24 03:10:52;;;;;;;10.93;2.50;;;;;;;4.96;100.00;101678.75;4976235;28;20487;-87
2023/02/24 03:13:24;;;;;;;9.68;3.00;;;;;;;4.92;100.00;101679.97;4972872;28;20109;-86
2023/02/24 03:15:56;;;;;;;7.47;2.55;;;;;;;4.76;100.00;101658.97;4974843;28;20065;-87
2023/02/24 03:18:28;;;;;;;13.50;3.20;;;;;;;4.76;100.00;101668.75;4958699;28;20518;-89
2023/02/24 03:21:16;;;;;;;6.50;2.67;;;;;;;4.67;100.00;101664.13;4972777;28;20393;-85
2023/02/24 03:23:51;;;;;;;7.85;3.85;;;;;;;4.59;100.00;101673.53;4985709;28;20054;-87
2023/02/24 03:26:48;;;;;;;5.63;3.25;;;;;;;4.48;100.00;101664.66;4964004;28;20037;-87
2023/02/24 03:29:26;;;;;;;7.53;2.53;;;;;;;4.49;100.00;101672.53;4976066;28;20039;-89
2023/02/24 03:32:06;;;;;;;5.85;4.07;;;;;;;4.36;100.00;101650.44;4972236;28;20053;-88
2023/02/24 03:35:06;;;;;;;8.20;2.85;;;;;;;4.47;100.00;101670.94;4961442;28;20046;-90
2023/02/24 03:37:32;;;;;;;9.73;2.88;;;;;;;4.46;100.00;101663.91;4956570;28;20035;-88
2023/02/24 03:40:13;;;;;;;4.10;2.42;;;;;;;4.49;100.00;101659.22;4975933;28;20495;-88
2023/02/24 03:42:57;;;;;;;9.80;2.30;;;;;;;4.18;100.00;101596.72;4959747;28;20042;-86
2023/02/24 03:45:26;;;;;;;9.80;3.30;;;;;;;4.51;100.00;101648.44;4974792;28;20113;-86
2023/02/24 03:47:57;;;;;;;4.25;1.50;;;;;;;4.52;100.00;101634.16;4956842;28;20449;-89
2023/02/24 03:50:30;;;;;;;12.82;2.90;;;;;;;4.62;100.00;101635.16;4956029;28;20038;-86
2023/02/24 03:53:00;;;;;;;4.27;1.67;;;;;;;4.57;100.00;101618.69;4974074;28;20034;-85
2023/02/24 03:55:58;;;;;;;8.80;3.40;;;;;;;4.75;100.00;101633.28;4992407;28;20338;-85
2023/02/24 03:58:54;;;;;;;7.40;2.50;;;;;;;4.75;100.00;101611.13;4989867;28;20040;-85
2023/02/24 04:02:22;;;;;;;5.95;2.05;;;;;;;4.92;100.00;101628.47;4980137;28;20453;-90
2023/02/24 04:05:12;;;;;;;8.43;4.10;;;;;;;4.97;100.00;101629.81;4957111;28;20470;-89
2023/02/24 04:11:19;;;;;;;9.50;3.22;;;;;;;4.87;100.00;101609.31;4992112;28;20066;-86
2023/02/24 04:14:05;;;;;;;7.47;2.65;;;;;;;4.85;100.00;101598.78;4989506;28;20457;-86
2023/02/24 04:16:38;;;;;;;5.57;3.13;;;;;;;4.97;100.00;101616.47;4971844;28;20385;-88
2023/02/24 04:19:07;;;;;;;;;;;;;;;4.99;100.00;101611.88;4971003;28;20050;-84
2023/02/24 04:21:36;;;;;;;7.90;3.22;;;;;;;4.95;100.00;101604.25;4988117;28;20004;-85
2023/02/24 04:24:10;;;;;;;6.88;2.58;;;;;;;5.00;100.00;101607.41;4957592;28;20042;-88
2023/02/24 04:26:39;;;;;;;6.65;2.80;;;;;;;4.97;100.00;101595.16;4977193;28;20042;-88
2023/02/24 04:29:12;;;;;;;4.78;2.38;;;;;;;5.04;100.00;101598.22;4980117;28;20038;-87
2023/02/24 04:31:40;;;;;;;8.07;2.97;;;;;;;5.03;100.00;101593.88;4962487;28;20041;-87
2023/02/24 04:34:08;;;;;;;7.95;1.95;;;;;;;4.99;100.00;101589.72;4992467;28;20038;-82
2023/02/24 04:36:34;;;;;;;6.88;2.65;;;;;;;5.02;100.00;101601.00;4994856;28;20034;-87
2023/02/24 04:39:00;;;;;;;12.25;3.25;;;;;;;5.06;100.00;101597.13;4962689;28;20129;-89
2023/02/24 04:41:25;;;;;;;8.38;2.72;;;;;;;5.12;100.00;101602.94;4960632;28;20076;-89
2023/02/24 04:43:51;;;;;;;11.88;2.53;;;;;;;5.05;100.00;101589.25;4993271;28;20027;-85
2023/02/24 04:46:22;;;;;;;12.63;3.60;;;;;;;5.10;100.00;101587.06;4974614;28;20472;-86
2023/02/24 04:48:49;;;;;;;11.77;3.03;;;;;;;5.10;100.00;101587.06;4978882;28;20045;-84
2023/02/24 04:51:19;;;;;;;7.03;2.85;;;;;;;5.03;100.00;101584.03;4993255;28;20038;-85
2023/02/24 04:53:45;;;;;;;16.23;3.13;;;;;;;5.03;100.00;101592.03;4976360;28;20046;-88
2023/02/24 04:56:13;;;;;;;8.02;3.25;;;;;;;4.97;100.00;101576.50;4978897;28;20034;-85
2023/02/24 04:58:40;;;;;;;10.70;3.50;;;;;;;5.00;100.00;101586.06;4977449;28;20049;-84
2023/02/24 05:01:12;;;;;;;6.85;2.40;;;;;;;5.00;100.00;101581.63;4960888;28;20057;-90
2023/02/24 05:03:41;;;;;;;7.80;2.40;;;;;;;5.00;100.00;101583.41;4961659;28;20045;-87
2023/02/24 05:06:16;;;;;;;11.65;2.60;;;;;;;5.00;100.00;101589.63;4974635;28;20477;-88
2023/02/24 05:08:46;;;;;;;10.52;3.15;;;;;;;4.98;100.00;101588.88;4974793;28;20043;-87
2023/02/24 05:11:18;;;;;;;10.55;2.75;;;;;;;5.01;100.00;101595.78;4975147;28;20043;-88
2023/02/24 05:13:47;;;;;;;5.55;1.80;;;;;;;5.02;100.00;101589.47;4992318;28;20092;-87
2023/02/24 05:16:16;;;;;;;6.25;2.17;;;;;;;5.02;100.00;101589.47;4993878;28;20046;-86
2023/02/24 05:18:43;;;;;;;8.93;2.20;;;;;;;4.93;100.00;101574.22;4961639;28;20096;-85
2023/02/24 05:24:03;;;;;;;3.20;1.80;;;;;;;4.81;100.00;101563.53;4988554;28;20480;-86
2023/02/24 05:26:34;;;;;;;12.77;2.60;;;;;;;4.76;100.00;101576.38;4978010;28;20045;-88
2023/02/24 05:29:05;;;;;;;7.07;2.60;;;;;;;4.62;100.00;101558.75;4992680;28;20061;-86
2023/02/24 05:31:31;;;;;;;7.10;2.15;;;;;;;4.60;100.00;101574.03;4961333;28;20037;-87
2023/02/24 05:34:01;;;;;;;10.30;2.80;;;;;;;4.49;100.00;101568.66;4992822;28;20027;-88
2023/02/24 05:36:40;;;;;;;12.38;2.53;;;;;;;4.42;100.00;101567.44;4976594;28;20034;-88
2023/02/24 05:39:11;;;;;;;10.25;2.55;;;;;;;4.40;100.00;101575.53;4974363;28;20045;-87
2023/02/24 05:41:41;;;;;;;6.15;2.38;;;;;;;4.38;100.00;101572.13;4990685;28;20033;-88
2023/02/24 05:44:10;;;;;;;5.72;1.98;;;;;;;4.34;100.00;101567.16;4960048;28;20483;-88
2023/02/24 05:46:39;;;;;;;11.15;1.67;;;;;;;4.41;100.00;101563.91;4975372;28;20031;-88
2023/02/24 05:49:13;;;;;;;4.95;1.83;;;;;;;4.55;100.00;101565.56;4972639;28;20133;-86
2023/02/24 05:51:53;;;;;;;7.13;1.90;;;;;;;4.67;100.00;101560.25;4990540;28;20046;-87
2023/02/24 05:54:21;;;;;;;11.63;2.60;;;;;;;4.61;100.00;101550.91;4993336;28;20042;-86
2023/02/24 05:56:48;;;;;;;13.63;3.15;;;;;;;4.68;100.00;101552.13;4989868;28;20070;-85
2023/02/24 05:59:20;;;;;;;5.05;1.80;;;;;;;4.79;100.00;101562.81;4979927;28;20073;-88
2023/02/24 06:01:52;;;;;;;10.45;2.88;;;;;;;4.81;100.00;101563.53;4975459;28;20039;-85
2023/02/24 06:04:38;;;;;;;5.97;1.95;;;;;;;4.76;100.00;101557.72;4987487;28;20034;-90
2023/02/24 06:07:12;;;;;;;10.52;2.20;;;;;;;4.56;100.00;101513.13;4993846;28;20038;-86
2023/02/24 06:09:41;;;;;;;6.55;1.75;;;;;;;4.89;100.00;101565.59;4995177;28;20034;-88
2023/02/24 06:12:08;;;;;;;15.98;1.23;;;;;;;4.95;100.00;101566.94;4978145;28;20461;-87
2023/02/24 06:14:34;;;;;;;12.52;2.13;;;;;;;4.96;100.00;101560.66;4962089;28;20034;-84
2023/02/24 06:17:03;;;;;;;2.40;1.33;;;;;;;4.87;100.00;101558.69;4995094;28;20519;-86
2023/02/24 06:19:34;;;;;;;5.45;2.15;;;;;;;4.82;100.00;101546.59;4952762;28;20105;-89
2023/02/24 06:22:00;;;;;;;8.73;2.15;;;;;;;4.89;100.00;101559.41;4975500;28;20097;-85
2023/02/24 06:24:28;;;;;;;7.88;2.05;;;;;;;4.88;100.00;101547.06;4993935;28;20030;-85
2023/02/24 06:27:08;;;;;;;3.97;1.60;;;;;;;4.88;100.00;101525.75;4976946;28;20127;-88
2023/02/24 06:29:37;;;;;;;9.00;2.17;;;;;;;5.00;100.00;101528.31;4978478;28;20030;-85
2023/02/24 06:32:09;;;;;;;12.07;2.20;;;;;;;5.09;100.00;101526.72;4961403;28;20104;-86
2023/02/24 06:34:38;;;;;;;11.10;2.00;;;;;;;5.19;100.00;101533.03;4976842;28;20116;-88
2023/02/24 06:37:06;;;;;;;7.75;1.75;;;;;;;5.12;100.00;101514.97;4975662;28;20042;-85
2023/02/24 06:39:33;;;;;;;8.60;2.67;;;;;;;5.18;100.00;101515.31;4973750;28;20108;-87
2023/02/24 06:42:15;;;;;;;5.63;2.38;;;;;;;5.17;100.00;101526.13;4982453;28;20046;-87
2023/02/24 06:44:40;;;;;;;10.68;2.05;;;;;;;5.18;100.00;101531.31;4992417;28;20030;-87
2023/02/24 06:47:09;;;;;;;5.35;2.38;;;;;;;5.20;100.00;101533.88;4992546;28;20034;-87
2023/02/24 06:49:35;;;;;;;11.80;2.20;;;;;;;5.17;100.00;101526.97;4946928;28;20116;-86
2023/02/24 06:52:02;;;;;;;5.57;1.40;;;;;;;5.22;100.00;101523.94;4998092;28;20062;-84
2023/02/24 06:54:29;;;;;;;4.18;1.50;;;;;;;5.24;100.00;101524.69;4998662;28;20031;-87
2023/02/24 06:56:57;;;;;;;4.88;1.60;;;;;;;5.16;100.00;101503.97;4982080;28;20077;-89
2023/02/24 06:59:27;;;;;;;7.90;2.28;;;;;;;5.21;100.00;101522.22;4944065;28;20100;-89
2023/02/24 07:01:57;;;;;;;5.45;2.53;;;;;;;5.23;100.00;101518.47;4992727;28;20030;-85
2023/02/24 07:04:23;;;;;;;3.65;1.40;;;;;;;5.19;100.00;101516.19;4974414;28;20472;-85
2023/02/24 07:06:54;;;;;;;6.72;2.13;;;;;;;5.20;100.00;101512.53;4976557;28;20037;-87
2023/02/24 07:09:22;;;;;;;5.57;2.17;;;;;;;5.16;100.00;101508.41;4960600;28;20038;-88
2023/02/24 07:11:58;;;;;;;9.38;2.05;;;;;;;5.10;100.00;101501.75;4972913;28;20037;-88
2023/02/24 07:14:28;;;;;;;5.78;1.38;;;;;;;5.13;100.00;101506.84;4959347;28;20046;-87
2023/02/24 07:16:56;;;;;;;7.10;1.65;;;;;;;5.15;100.00;101504.06;4990977;28;20042;-86
2023/02/24 07:19:25;;;;;;;11.60;2.67;;;;;;;5.20;100.00;101518.72;4993379;28;20085;-84
2023/02/24 07:21:58;;;;;;;8.80;2.10;;;;;;;5.24;100.00;101516.69;4958058;28;20038;-86
2023/02/24 07:24:31;;;;;;;7.95;2.25;;;;;;;5.24;100.00;101522.84;4959052;28;20026;-88
2023/02/24 07:27:00;;;;;;;2.70;1.52;;;;;;;5.20;100.00;101521.38;4990992;28;20043;-86
2023/02/24 07:29:27;;;;;;;7.88;1.73;;;;;;;5.19;100.00;101526.88;4961052;28;20041;-86
2023/02/24 07:31:53;;;;;;;5.07;2.20;;;;;;;5.23;100.00;101529.13;4976129;28;20068;-88
2023/02/24 07:34:24;;;;;;;7.72;1.92;;;;;;;5.27;100.00;101527.94;4991884;28;20085;-89
2023/02/24 07:36:52;;;;;;;2.50;1.02;;;;;;;5.28;100.00;101521.63;4989054;28;20027;-85
2023/02/24 07:39:18;;;;;;;7.57;1.70;;;;;;;5.44;100.00;101529.25;4968649;28;20027;-87
2023/02/24 07:41:45;;;;;;;4.00;1.48;;;;;;;5.53;100.00;101530.34;4986824;28;20031;-88
2023/02/24 07:44:12;;;;;;;8.82;1.30;;;;;;;5.46;100.00;101505.97;4987549;28;20039;-86
2023/02/24 07:46:39;;;;;;;2.40;1.50;;;;;;;5.77;100.00;101550.63;4973930;28;20089;-88
2023/02/24 07:49:08;;;;;;;3.80;1.00;;;;;;;5.69;100.00;101552.13;4992441;28;20488;-87
2023/02/24 07:51:34;;;;;;;2.17;1.10;;;;;;;5.70;100.00;101543.13;4974904;28;20030;-88
2023/02/24 07:54:02;;;;;;;3.72;1.27;;;;;;;5.82;100.00;101545.78;4990541;28;20027;-87
2023/02/24 07:56:30;;;;;;;12.93;2.08;;;;;;;6.02;100.00;101555.69;4991780;28;20034;-84
2023/02/24 07:59:09;;;;;;;7.18;1.30;;;;;;;6.21;100.00;101546.16;4959252;28;20503;-88
2023/02/24 08:01:40;;;;;;;6.50;1.63;;;;;;;6.27;100.00;101541.16;4979341;28;20042;-85
2023/02/24 08:04:07;;;;;;;6.03;1.23;;;;;;;6.33;100.00;101543.31;4949726;28;20042;-89
2023/02/24 08:06:38;;;;;;;10.68;2.65;;;;;;;6.39;100.00;101549.97;4955081;28;20046;-88
2023/02/24 08:11:56;;;;;;;8.00;1.70;;;;;;;6.43;100.00;101529.16;4962317;28;20034;-86
2023/02/24 08:14:24;;;;;;;8.68;1.85;;;;;;;6.38;100.00;101530.44;4990648;28;20298;-85
2023/02/24 08:16:58;;;;;;;6.90;1.77;;;;;;;6.48;100.00;101533.13;4990807;28;20034;-87
2023/02/24 08:19:31;;;;;;;5.50;1.00;;;;;;;6.52;100.00;101533.75;4972241;28;20081;-85
2023/02/24 08:22:17;;;;;;;6.47;1.25;;;;;;;6.62;100.00;101536.50;4987976;28;20518;-84
2023/02/24 08:24:54;;;;;;;6.43;1.30;;;;;;;6.66;100.00;101535.25;4958378;28;20129;-86
2023/02/24 08:27:22;;;;;;;12.55;2.17;;;;;;;6.62;100.00;101520.47;4985513;28;20533;-85
2023/02/24 08:29:58;;;;;;;6.78;1.55;;;;;;;6.82;100.00;101532.94;4957362;28;20039;-86
2023/02/24 08:32:36;;;;;;;8.10;1.25;;;;;;;6.91;100.00;101525.97;4980698;28;20027;-87
2023/02/24 08:35:14;;;;;;;6.25;2.22;;;;;;;7.16;100.00;101521.97;4979549;28;20070;-86
2023/02/24 08:37:45;;;;;;;14.85;2.25;;;;;;;7.49;100.00;101515.47;4973522;28;20045;-89
2023/02/24 08:43:49;;;;;;;6.80;1.52;;;;;;;8.09;100.00;101499.31;4995775;28;20444;-88
2023/02/24 08:45:59;;;;;;;3.35;1.50;;;;;;;8.87;100.00;101536.78;4988886;28;20056;-86
2023/02/24 08:48:41;;;;;;;12.13;2.17;;;;;;;9.20;100.00;101535.38;4992722;28;20085;-87
2023/02/24 08:51:09;;;;;;;9.35;1.80;;;;;;;8.80;100.00;101536.50;4977185;28;20377;-86
2023/02/24 08:53:39;;;;;;;8.40;1.50;;;;;;;8.62;100.00;101532.88;4985400;28;20042;-87
2023/02/24 08:56:22;;;;;;;14.85;1.70;;;;;;;8.51;100.00;101524.00;4962681;28;20053;-88
2023/02/24 08:59:04;;;;;;;9.40;2.10;;;;;;;8.83;100.00;101519.28;4979686;28;20106;-89
2023/02/24 09:01:35;;;;;;;4.95;1.13;;;;;;;8.66;100.00;101513.69;4958694;28;20120;-87
2023/02/24 09:04:07;;;;;;;7.45;1.30;;;;;;;8.86;100.00;101510.94;4959088;28;20046;-89
2023/02/24 09:06:38;;;;;;;6.82;1.40;;;;;;;10.10;95.05;101506.81;4977665;28;20026;-86
2023/02/24 09:09:16;;;;;;;6.43;1.70;;;;;;;10.41;90.09;101493.84;4996539;28;20473;-87
2023/02/24 09:11:45;;;;;;;7.50;1.02;;;;;;;10.24;91.18;101483.91;4947149;28;20425;-89
2023/02/24 09:14:15;;;;;;;7.03;1.27;;;;;;;10.11;90.99;101501.31;4976086;28;20092;-88
2023/02/24 09:17:01;;;;;;;7.40;2.17;;;;;;;10.34;89.18;101506.22;4978088;28;20042;-85
2023/02/24 09:22:55;;;;;;;7.28;1.67;;;;;;;11.25;85.89;101488.78;4992642;28;20041;-86
2023/02/24 09:25:24;;;;;;;10.55;1.88;;;;;;;12.29;78.83;101491.84;4994702;28;20074;-84
2023/02/24 09:28:16;;;;;;;7.22;2.20;;;;;;;12.82;75.21;101480.63;4962520;28;20074;-81
2023/02/24 09:30:52;;;;;;;4.07;1.53;;;;;;;13.33;72.17;101481.16;4980302;28;20050;-80
2023/02/24 09:33:25;;;;;;;12.07;1.95;;;;;;;13.29;71.13;101482.53;4997178;28;20084;-81
2023/02/24 09:36:08;;;;;;;3.67;1.35;;;;;;;13.43;68.91;101473.66;4994480;28;20042;-80
2023/02/24 09:44:36;;;;;;;8.65;2.20;;;;;;;14.70;61.60;101474.03;4995826;28;20026;-80
2023/02/24 09:47:07;;;;;;;5.35;1.45;;;;;;;14.09;62.92;101441.63;4976416;28;20058;-83
2023/02/24 09:49:58;;;;;;;9.48;2.40;;;;;;;14.50;62.69;101470.97;4976789;28;20034;-81
2023/02/24 09:52:38;;;;;;;4.22;2.10;;;;;;;15.10;61.31;101451.06;4958998;28;20042;-81
2023/02/24 09:55:28;;;;;;;10.75;1.40;;;;;;;15.49;60.77;101457.16;4984417;28;20398;-83
2023/02/24 10:01:29;;;;;;;3.97;1.42;;;;;;;15.23;57.99;101474.78;4994844;28;20087;-75
2023/02/24 10:04:10;;;;;;;9.90;1.60;;;;;;;14.08;63.17;101475.94;4978017;28;20556;-75
2023/02/24 10:07:04;;;;;;;7.05;1.50;;;;;;;13.06;68.06;101442.75;4993954;28;20035;-74
2023/02/24 10:09:53;;;;;;;6.90;1.40;;;;;;;12.37;71.09;101460.50;4977374;28;20042;-76
2023/02/24 10:12:31;;;;;;;4.88;1.40;;;;;;;11.46;76.30;101454.19;4978534;28;20117;-76
2023/02/24 10:15:18;;;;;;;9.23;2.20;;;;;;;10.82;81.49;101458.28;4961827;28;20034;-76
2023/02/24 10:17:56;;;;;;;6.78;1.75;;;;;;;11.32;81.94;101452.94;4978529;28;20460;-74
2023/02/24 10:20:44;;;;;;;6.28;2.55;;;;;;;14.86;65.18;101457.59;4971712;28;20069;-74
2023/02/24 10:23:31;;;;;;;9.30;2.00;;;;;;;16.80;56.89;101455.00;4991983;28;20033;-80
2023/02/24 10:26:20;;;;;;;8.23;2.20;;;;;;;18.44;48.14;101442.06;4993516;28;20057;-80
2023/02/24 10:28:52;;;;;;;9.50;2.40;;;;;;;17.73;49.52;101447.19;4978866;28;20077;-84
2023/02/24 10:31:44;;;;;;;10.38;3.00;;;;;;;18.41;46.61;101430.72;4993313;28;20084;-79
2023/02/24 10:34:18;;;;;;;3.63;1.52;;;;;;;18.68;47.42;101439.69;4976847;28;20057;-79
2023/02/24 10:36:49;;;;;;;4.18;1.77;;;;;;;19.28;46.04;101436.78;4993508;28;20039;-81
2023/02/24 10:39:24;;;;;;;6.22;1.60;;;;;;;19.60;44.99;101436.84;4977926;28;20105;-81
2023/02/24 10:42:14;;;;;;;5.13;1.77;;;;;;;19.87;43.57;101437.53;4993112;28;20027;-81
2023/02/24 10:44:50;;;;;;;7.28;2.10;;;;;;;20.06;41.57;101428.38;4993522;28;20132;-81
2023/02/24 10:47:34;;;;;;;4.20;1.45;;;;;;;18.84;43.09;101416.63;4993019;28;20034;-79
2023/02/24 10:50:04;;;;;;;6.15;2.33;;;;;;;16.66;48.56;101432.31;4977160;28;20026;-81
2023/02/24 10:52:36;;;;;;;6.97;1.42;;;;;;;14.34;55.85;101427.84;4993209;28;20046;-81
2023/02/24 10:55:26;;;;;;;3.17;1.13;;;;;;;14.62;56.77;101426.25;4977272;28;20128;-80
2023/02/24 10:58:05;;;;;;;2.00;1.20;;;;;;;13.07;62.81;101416.59;4993036;28;20497;-80
2023/02/24 11:04:52;;;;;;;11.05;1.55;;;;;;;12.43;68.98;101427.44;4942293;29;20027;-79
2023/02/24 11:06:54;;;;;;;3.55;1.05;;;;;;;14.03;62.96;101434.25;4932736;29;20147;-80
2023/02/24 11:17:49;;;;;;;7.38;1.85;;;;;;;14.14;57.87;101417.56;4993275;28;20069;-79
2023/02/24 11:20:35;;;;;;;4.38;2.20;;;;;;;14.51;58.91;101435.63;4976964;28;20488;-79
2023/02/24 11:23:03;;;;;;;8.30;1.92;;;;;;;14.94;56.45;101430.44;4960942;28;20030;-79
2023/02/24 11:25:38;;;;;;;7.93;1.85;;;;;;;16.79;51.54;101426.16;4993184;28;20057;-83
2023/02/24 11:28:15;;;;;;;7.07;2.60;;;;;;;16.44;51.79;101418.81;4992773;28;20022;-79
2023/02/24 11:31:01;;;;;;;8.57;1.58;;;;;;;15.72;52.70;101419.91;4992737;28;20080;-81
2023/02/24 11:33:33;;;;;;;9.68;1.83;;;;;;;15.14;54.83;101409.03;4962676;28;20043;-80
2023/02/24 11:36:27;;;;;;;6.10;1.80;;;;;;;15.32;55.43;101419.47;4997684;28;20061;-80
2023/02/24 11:39:23;;;;;;;6.28;1.80;;;;;;;14.69;56.46;101402.00;4996797;28;20022;-81
2023/02/24 11:41:56;;;;;;;7.63;1.98;;;;;;;13.66;62.00;101421.53;4996927;28;20037;-82
2023/02/24 11:44:38;;;;;;;5.13;1.80;;;;;;;13.07;63.59;101428.25;4980565;28;20037;-80
2023/02/24 11:47:10;;;;;;;9.20;2.95;;;;;;;12.79;65.58;101429.72;4996596;28;20073;-81
2023/02/24 11:49:52;;;;;;;10.38;2.00;;;;;;;12.52;67.26;101421.84;4980218;28;20558;-80
2023/02/24 11:52:38;;;;;;;10.48;2.67;;;;;;;12.52;68.01;101421.03;4996193;28;20042;-81
2023/02/24 11:55:39;;;;;;;8.43;3.53;;;;;;;12.88;66.66;101413.28;4996354;28;20039;-82
2023/02/24 11:58:16;;;;;;;11.98;2.00;;;;;;;13.42;66.70;101423.38;4964227;28;20039;-80
2023/02/24 12:00:54;;;;;;;4.28;1.75;;;;;;;14.06;63.87;101417.66;4979893;28;20030;-80
2023/02/24 12:03:34;;;;;;;6.25;2.22;;;;;;;15.38;56.76;101412.44;4996158;28;20033;-80
2023/02/24 12:06:11;;;;;;;6.50;1.98;;;;;;;15.38;55.16;101398.88;4996100;28;20034;-80
2023/02/24 12:08:38;;;;;;;8.70;1.88;;;;;;;15.02;57.79;101407.00;4980562;28;20058;-82
2023/02/24 12:11:34;;;;;;;8.73;1.95;;;;;;;16.38;53.85;101413.34;4997289;28;20037;-80
2023/02/24 12:14:20;;;;;;;4.93;1.48;;;;;;;15.13;56.13;101404.63;4996878;28;20049;-81
2023/02/24 12:16:49;;;;;;;4.47;1.50;;;;;;;13.99;60.68;101408.56;4979921;28;20659;-80
2023/02/24 12:19:18;;;;;;;4.55;1.33;;;;;;;13.53;63.35;101409.44;4995528;28;20034;-80
2023/02/24 12:22:04;;;;;;;8.45;2.08;;;;;;;13.59;63.29;101397.91;4963987;28;20089;-80
2023/02/24 12:24:32;;;;;;;5.18;1.40;;;;;;;13.77;62.47;101392.19;4965707;28;20042;-80
2023/02/24 12:27:14;;;;;;;4.88;1.35;;;;;;;13.87;63.83;101397.38;4997165;28;20040;-80
2023/02/24 12:29:54;;;;;;;6.90;2.10;;;;;;;13.80;63.42;101385.59;4979689;28;20061;-80
2023/02/24 12:32:34;;;;;;;7.90;1.73;;;;;;;13.29;66.68;101394.22;4963718;28;20117;-81
2023/02/24 12:35:10;;;;;;;5.15;1.75;;;;;;;12.49;69.33;101392.53;4996384;28;20477;-80